Bornholm Airport

EKRN · Capital Region, Denmark

METAR history EKRN · Bornholm Airport

Below you see METARs of the last few days. Select a year to browse through older METARs, from the year 2007 onwards.

June 6, 2023

Time Code Weather Temp. Visibility Ceiling Wind METAR/SPECI
10:50
V
17 °C 10 km+ - 270° 270° 5 kt METAR EKRN 060850Z AUTO 27005KT 230V290 9999 NCD 17/12 Q1021
10:20
V
18 °C 10 km+ - 280° 280° 6 kt METAR EKRN 060820Z AUTO 28006KT 9999 NCD 18/11 Q1021
09:50
V
17 °C 10 km+ - 270° 270° 5 kt METAR EKRN 060750Z AUTO 27005KT 9999 NCD 17/12 Q1021
09:20
V
17 °C 10 km+ - 280° 280° 5 kt METAR EKRN 060720Z AUTO 28005KT 9999 NCD 17/11 Q1021
08:50
V
16 °C 10 km+ - 280° 280° 6 kt METAR EKRN 060650Z AUTO 28006KT 9999 NCD 16/12 Q1021
08:20
V
16 °C 10 km+ - 260° 260° 4 kt METAR EKRN 060620Z AUTO 26004KT 9999 NCD 16/13 Q1021
07:50
V
16 °C 10 km+ - 260° 260° 4 kt METAR EKRN 060550Z AUTO 26004KT 9999 NCD 16/13 Q1020
07:20
V
15 °C 10 km+ - 290° 290° 3 kt METAR EKRN 060520Z AUTO 29003KT 9999 NCD 15/13 Q1020
06:50
V
15 °C 10 km+ - 310° 310° 1 kt METAR EKRN 060450Z AUTO 31001KT 9999 NCD 15/13 Q1020
06:20
V
13 °C 10 km+ - Var 360° 0 kt METAR EKRN 060420Z AUTO 00000KT 9999 NCD 13/11 Q1020
05:50
V
11 °C 10 km+ - 020° 020° 1 kt METAR EKRN 060350Z AUTO 02001KT 9999 NCD 11/09 Q1020
05:20
I
9 °C 3.5 km - 040° 040° 2 kt METAR EKRN 060320Z AUTO 04002KT 3500 BR NCD 09/08 Q1021
04:50
V
9 °C 10 km+ - 030° 030° 2 kt METAR EKRN 060250Z AUTO 03002KT 9999 NCD 09/08 Q1021
04:20
V
10 °C 10 km+ - 050° 050° 3 kt METAR EKRN 060220Z AUTO 05003KT 9999 NCD 10/09 Q1021
03:50
M
10 °C 5 km - 050° 050° 3 kt METAR EKRN 060150Z AUTO 05003KT 5000 NCD 10/09 Q1021
03:20
V
10 °C 10 km+ - 050° 050° 3 kt METAR EKRN 060120Z AUTO 05003KT 9999 NCD 10/09 Q1021
02:50
L
9 °C 1.3 km - 060° 060° 2 kt METAR EKRN 060050Z AUTO 06002KT 1300 R11/P1500N R29/P1500N BR NCD 09/08 Q1021
02:20
M
10 °C 6 km - 060° 060° 3 kt METAR EKRN 060020Z AUTO 06003KT 6000 NCD 10/09 Q1021
01:50
V
10 °C 10 km+ - 060° 060° 2 kt METAR EKRN 052350Z AUTO 06002KT 9999 NCD 10/09 Q1021
01:20
V
10 °C 10 km+ - 070° 070° 3 kt METAR EKRN 052320Z AUTO 07003KT 9999 NCD 10/09 Q1021
00:50
V
10 °C 10 km+ - 050° 050° 2 kt METAR EKRN 052250Z AUTO 05002KT 9999 NCD 10/09 Q1021
00:20
V
10 °C 10 km+ - 060° 060° 2 kt METAR EKRN 052220Z AUTO 06002KT 9999 NCD 10/09 Q1021

June 5, 2023

Time Code Weather Temp. Visibility Ceiling Wind METAR/SPECI
23:50
V
11 °C 10 km+ - 050° 050° 3 kt METAR EKRN 052150Z AUTO 05003KT 9999 NCD 11/09 Q1021
23:20
V
11 °C 10 km+ - 050° 050° 3 kt METAR EKRN 052120Z AUTO 05003KT 9999 NCD 11/09 Q1021
22:50
V
12 °C 10 km+ - 070° 070° 2 kt METAR EKRN 052050Z AUTO 07002KT 9999 NCD 12/10 Q1021
22:20
V
12 °C 10 km+ - 050° 050° 3 kt METAR EKRN 052020Z AUTO 05003KT 9999 NCD 12/10 Q1021
21:50
V
13 °C 10 km+ - 090° 090° 2 kt METAR EKRN 051950Z AUTO 09002KT 9999 NCD 13/10 Q1021
21:20
V
13 °C 10 km+ - 130° 130° 4 kt METAR EKRN 051920Z AUTO 13004KT 9999 NCD 13/11 Q1021
20:50
V
14 °C 10 km+ - 130° 130° 3 kt METAR EKRN 051850Z AUTO 13003KT 9999 NCD 14/11 Q1021
20:20
V
16 °C 10 km+ - 130° 130° 2 kt METAR EKRN 051820Z AUTO 13002KT 9999 NCD 16/12 Q1021
19:50
V
16 °C 10 km+ - 210° 210° 1 kt METAR EKRN 051750Z AUTO 21001KT 9999 NCD 16/10 Q1021
19:20
V
17 °C 10 km+ - 240° 240° 2 kt METAR EKRN 051720Z AUTO 24002KT 9999 NCD 17/10 Q1021
18:50
V
17 °C 10 km+ - 220° 220° 3 kt METAR EKRN 051650Z AUTO 22003KT 9999 NCD 17/09 Q1021
18:20
V
17 °C 10 km+ - 230° 230° 3 kt METAR EKRN 051620Z AUTO 23003KT 9999 NCD 17/10 Q1021
17:50
V
17 °C 10 km+ - 240° 240° 4 kt METAR EKRN 051550Z AUTO 24004KT 9999 NCD 17/10 Q1021
17:20
V
17 °C 10 km+ - 230° 230° 4 kt METAR EKRN 051520Z AUTO 23004KT 9999 NCD 17/09 Q1022
16:50
V
17 °C 10 km+ - 220° 220° 4 kt METAR EKRN 051450Z AUTO 22004KT 200V270 9999 NCD 17/11 Q1022
16:20
V
17 °C 10 km+ - 220° 220° 5 kt METAR EKRN 051420Z AUTO 22005KT 9999 NCD 17/09 Q1022
15:50
V
17 °C 10 km+ - 240° 240° 5 kt METAR EKRN 051350Z AUTO 24005KT 9999 NCD 17/10 Q1022
15:20
V
17 °C 10 km+ - 240° 240° 5 kt METAR EKRN 051320Z AUTO 24005KT 200V260 9999 NCD 17/11 Q1022
14:50
V
17 °C 10 km+ - 240° 240° 6 kt METAR EKRN 051250Z AUTO 24006KT 9999 NCD 17/10 Q1023
14:20
V
17 °C 10 km+ - 240° 240° 5 kt METAR EKRN 051220Z AUTO 24005KT 9999 NCD 17/11 Q1023
13:50
V
17 °C 10 km+ - 240° 240° 5 kt METAR EKRN 051150Z AUTO 24005KT 9999 NCD 17/11 Q1023
13:20
V
17 °C 10 km+ - 230° 230° 5 kt METAR EKRN 051120Z AUTO 23005KT 200V260 9999 NCD 17/10 Q1023
12:50
V
17 °C 10 km+ - 220° 220° 4 kt METAR EKRN 051050Z AUTO 22004KT 200V260 9999 NCD 17/11 Q1023
12:20
V
17 °C 10 km+ - 240° 240° 4 kt METAR EKRN 051020Z AUTO 24004KT 200V260 9999 NCD 17/11 Q1023
11:50
V
16 °C 10 km+ - 230° 230° 4 kt METAR EKRN 050950Z AUTO 23004KT 9999 NCD 16/12 Q1023
11:20
V
16 °C 10 km+ - 230° 230° 4 kt METAR EKRN 050920Z AUTO 23004KT 200V270 9999 NCD 16/12 Q1023
10:50
V
16 °C 10 km+ - 240° 240° 5 kt METAR EKRN 050850Z AUTO 24005KT 9999 NCD 16/11 Q1023
10:20
V
16 °C 10 km+ - 250° 250° 5 kt METAR EKRN 050820Z AUTO 25005KT 9999 NCD 16/10 Q1023
09:50
V
16 °C 10 km+ - 260° 260° 5 kt METAR EKRN 050750Z AUTO 26005KT 230V290 9999 NCD 16/10 Q1023
09:20
V
15 °C 10 km+ - 230° 230° 3 kt METAR EKRN 050720Z AUTO 23003KT 9999 NCD 15/11 Q1023
08:50
V
15 °C 10 km+ - 230° 230° 3 kt METAR EKRN 050650Z AUTO 23003KT 9999 NCD 15/12 Q1023
08:20
V
15 °C 10 km+ - 220° 220° 2 kt METAR EKRN 050620Z AUTO 22002KT 9999 NCD 15/12 Q1023
07:50
V
14 °C 10 km+ - 190° 190° 2 kt METAR EKRN 050550Z AUTO 19002KT 9999 NCD 14/12 Q1023
07:20
V
14 °C 10 km+ - 210° 210° 1 kt METAR EKRN 050520Z AUTO 21001KT 9999 NCD 14/12 Q1023
06:50
V
14 °C 10 km+ - Var 360° 0 kt METAR EKRN 050450Z AUTO 00000KT 9999 NCD 14/12 Q1023
06:20
V
11 °C 10 km+ - 050° 050° 1 kt METAR EKRN 050420Z AUTO 05001KT 9999 NCD 11/10 Q1023
05:50
V
9 °C 10 km+ - 040° 040° 1 kt METAR EKRN 050350Z AUTO 04001KT 9999 NCD 09/08 Q1023
05:20
V
8 °C 10 km+ - 040° 040° 2 kt METAR EKRN 050320Z AUTO 04002KT 9999 NCD 08/07 Q1023
04:50
V
8 °C 10 km+ - 020° 020° 1 kt METAR EKRN 050250Z AUTO 02001KT 9999 NCD 08/07 Q1023
04:20
V
7 °C 10 km+ - 040° 040° 1 kt METAR EKRN 050220Z AUTO 04001KT 9999 NCD 07/07 Q1023
03:50
V
8 °C 10 km+ - 040° 040° 1 kt METAR EKRN 050150Z AUTO 04001KT 9999 NCD 08/07 Q1023
03:20
V
8 °C 10 km+ - 040° 040° 2 kt METAR EKRN 050120Z AUTO 04002KT 9999 NCD 08/08 Q1023
02:50
V
8 °C 10 km+ - 030° 030° 1 kt METAR EKRN 050050Z AUTO 03001KT 9999 NCD 08/08 Q1023
02:20
V
9 °C 10 km+ - 030° 030° 1 kt METAR EKRN 050020Z AUTO 03001KT 9999 NCD 09/08 Q1023
01:50
V
9 °C 10 km+ - Var 360° 0 kt METAR EKRN 042350Z AUTO 00000KT 9999 NCD 09/08 Q1023
01:20
V
8 °C 10 km+ - 330° 330° 1 kt METAR EKRN 042320Z AUTO 33001KT 9999 NCD 08/08 Q1023
00:50
V
8 °C 10 km+ - 320° 320° 1 kt METAR EKRN 042250Z AUTO 32001KT 9999 NCD 08/07 Q1023
00:20
V
9 °C 10 km+ - 350° 350° 1 kt METAR EKRN 042220Z AUTO 35001KT 9999 NCD 09/08 Q1023

June 4, 2023

Time Code Weather Temp. Visibility Ceiling Wind METAR/SPECI
23:50
V
10 °C 10 km+ - 320° 320° 1 kt METAR EKRN 042150Z AUTO 32001KT 9999 NCD 10/08 Q1023
23:20
V
9 °C 9 km - 340° 340° 1 kt METAR EKRN 042120Z AUTO 34001KT 9000 NCD 09/08 Q1023
22:50
V
11 °C 10 km+ - 280° 280° 2 kt METAR EKRN 042050Z AUTO 28002KT 9999 NCD 11/09 Q1022
22:20
V
13 °C 10 km+ - 290° 290° 3 kt METAR EKRN 042020Z AUTO 29003KT 9999 NCD 13/10 Q1022
21:50
V
13 °C 10 km+ - 290° 290° 4 kt METAR EKRN 041950Z AUTO 29004KT 9999 NCD 13/10 Q1022
21:20
V
13 °C 10 km+ - 270° 270° 3 kt METAR EKRN 041920Z AUTO 27003KT 9999 NCD 13/10 Q1022
20:50
V
14 °C 10 km+ - 270° 270° 3 kt METAR EKRN 041850Z AUTO 27003KT 9999 NCD 14/11 Q1022
20:20
V
14 °C 10 km+ - 270° 270° 3 kt METAR EKRN 041820Z AUTO 27003KT 9999 NCD 14/11 Q1022
19:50
V
14 °C 10 km+ - 250° 250° 4 kt METAR EKRN 041750Z AUTO 25004KT 9999 NCD 14/11 Q1022
19:20
V
15 °C 10 km+ - 250° 250° 4 kt METAR EKRN 041720Z AUTO 25004KT 9999 NCD 15/11 Q1022
18:50
V
15 °C 10 km+ - 250° 250° 4 kt METAR EKRN 041650Z AUTO 25004KT 9999 NCD 15/11 Q1022
18:20
V
15 °C 10 km+ - 240° 240° 4 kt METAR EKRN 041620Z AUTO 24004KT 9999 NCD 15/11 Q1022
17:50
V
15 °C 10 km+ - 240° 240° 5 kt METAR EKRN 041550Z AUTO 24005KT 9999 NCD 15/11 Q1022
17:20
V
15 °C 10 km+ - 240° 240° 5 kt METAR EKRN 041520Z AUTO 24005KT 9999 NCD 15/11 Q1023
16:50
V
15 °C 10 km+ - 240° 240° 6 kt METAR EKRN 041450Z AUTO 24006KT 9999 NCD 15/11 Q1023
16:20
V
16 °C 10 km+ - 240° 240° 6 kt METAR EKRN 041420Z AUTO 24006KT 9999 NCD 16/11 Q1023
15:50
V
16 °C 10 km+ - 250° 250° 6 kt METAR EKRN 041350Z AUTO 25006KT 9999 NCD 16/11 Q1023
15:20
V
16 °C 10 km+ - 250° 250° 6 kt METAR EKRN 041320Z AUTO 25006KT 9999 NCD 16/10 Q1023
14:50
V
16 °C 10 km+ - 250° 250° 6 kt METAR EKRN 041250Z AUTO 25006KT 9999 NCD 16/09 Q1023
14:20
V
16 °C 10 km+ - 240° 240° 7 kt METAR EKRN 041220Z AUTO 24007KT 9999 NCD 16/10 Q1023
13:50
V
16 °C 10 km+ - 230° 230° 5 kt METAR EKRN 041150Z AUTO 23005KT 200V260 9999 NCD 16/09 Q1023
13:20
V
15 °C 10 km+ - 220° 220° 5 kt METAR EKRN 041120Z AUTO 22005KT 9999 NCD 15/09 Q1023
12:50
V
16 °C 10 km+ - 210° 210° 5 kt METAR EKRN 041050Z AUTO 21005KT 180V240 9999 NCD 16/09 Q1023
12:20
V
15 °C 10 km+ - 210° 210° 5 kt METAR EKRN 041020Z AUTO 21005KT 180V240 9999 NCD 15/09 Q1023
11:50
V
16 °C 10 km+ - 210° 210° 5 kt METAR EKRN 040950Z AUTO 21005KT 170V250 9999 NCD 16/10 Q1023
11:20
V
16 °C 10 km+ - 210° 210° 4 kt METAR EKRN 040920Z AUTO 21004KT 180V240 9999 NCD 16/09 Q1023
10:50
V
15 °C 10 km+ - 220° 220° 4 kt METAR EKRN 040850Z AUTO 22004KT 190V250 9999 NCD 15/09 Q1022
10:20
V
15 °C 10 km+ - 220° 220° 4 kt METAR EKRN 040820Z AUTO 22004KT 9999 NCD 15/08 Q1022
09:50
V
15 °C 10 km+ - 240° 240° 5 kt METAR EKRN 040750Z AUTO 24005KT 210V270 9999 NCD 15/09 Q1022

We and third parties follow your internet behavior on our website with cookies. If you continue, we assume you agree with our cookie policy.